createdAt,value
2022-12-06T00:00:51.740Z,1011.37
2022-12-06T00:01:51.775Z,1011.43
2022-12-06T00:02:51.764Z,1011.43
2022-12-06T00:03:51.702Z,1011.42
2022-12-06T00:04:51.743Z,1011.39
2022-12-06T00:05:51.694Z,1011.43
2022-12-06T00:06:51.704Z,1011.38
2022-12-06T00:07:51.733Z,1011.39
2022-12-06T00:08:51.649Z,1011.39
2022-12-06T00:09:51.636Z,1011.39
2022-12-06T00:10:51.660Z,1011.45
2022-12-06T00:11:51.619Z,1011.43
2022-12-06T00:12:51.624Z,1011.45
2022-12-06T00:13:51.620Z,1011.45
2022-12-06T00:14:51.619Z,1011.44
2022-12-06T00:15:51.585Z,1011.42
2022-12-06T00:16:51.633Z,1011.37
2022-12-06T00:17:51.594Z,1011.41
2022-12-06T00:18:51.557Z,1011.42
2022-12-06T00:19:51.545Z,1011.45
2022-12-06T00:20:51.534Z,1011.41
2022-12-06T00:21:51.538Z,1011.45
2022-12-06T00:22:51.525Z,1011.47
2022-12-06T00:23:51.508Z,1011.44
2022-12-06T00:24:51.493Z,1011.46
2022-12-06T00:25:51.472Z,1011.44
2022-12-06T00:26:51.510Z,1011.47
2022-12-06T00:27:51.461Z,1011.50
2022-12-06T00:28:51.454Z,1011.44
2022-12-06T00:29:51.438Z,1011.49
2022-12-06T00:30:51.462Z,1011.54
2022-12-06T00:31:51.600Z,1011.47
2022-12-06T00:32:51.884Z,1011.47
2022-12-06T00:33:51.399Z,1011.49
2022-12-06T00:34:51.895Z,1011.50
2022-12-06T00:35:51.402Z,1011.51
2022-12-06T00:36:51.373Z,1011.53
2022-12-06T00:37:51.344Z,1011.46
2022-12-06T00:38:51.342Z,1011.49
2022-12-06T00:39:51.321Z,1011.45
2022-12-06T00:40:51.341Z,1011.40
2022-12-06T00:41:51.314Z,1011.44
2022-12-06T00:42:51.313Z,1011.43
2022-12-06T00:43:51.288Z,1011.43
2022-12-06T00:44:51.271Z,1011.42
2022-12-06T00:45:51.330Z,1011.36
2022-12-06T00:46:51.298Z,1011.35
2022-12-06T00:47:51.248Z,1011.33
2022-12-06T00:48:51.237Z,1011.32
2022-12-06T00:49:51.248Z,1011.32
2022-12-06T00:50:51.222Z,1011.34
2022-12-06T00:51:51.196Z,1011.31
2022-12-06T00:52:51.190Z,1011.27
2022-12-06T00:53:51.197Z,1011.31
2022-12-06T00:54:51.194Z,1011.33
2022-12-06T00:55:51.168Z,1011.34
2022-12-06T00:56:51.146Z,1011.31
2022-12-06T00:57:51.137Z,1011.31
2022-12-06T00:58:51.133Z,1011.35
2022-12-06T00:59:51.125Z,1011.32
2022-12-06T01:00:51.247Z,1011.32
2022-12-06T01:01:51.158Z,1011.33
2022-12-06T01:02:51.170Z,1011.32
2022-12-06T01:03:51.109Z,1011.31
2022-12-06T01:04:51.065Z,1011.32
2022-12-06T01:05:51.066Z,1011.32
2022-12-06T01:06:51.071Z,1011.30
2022-12-06T01:07:51.103Z,1011.28
2022-12-06T01:08:51.026Z,1011.27
2022-12-06T01:09:51.013Z,1011.25
2022-12-06T01:10:51.009Z,1011.24
2022-12-06T01:11:51.003Z,1011.22
2022-12-06T01:12:50.979Z,1011.24
2022-12-06T01:13:50.962Z,1011.22
2022-12-06T01:14:50.964Z,1011.18
2022-12-06T01:15:50.945Z,1011.21
2022-12-06T01:16:50.957Z,1011.21
2022-12-06T01:17:50.946Z,1011.18
2022-12-06T01:18:50.937Z,1011.21
2022-12-06T01:19:50.904Z,1011.17
2022-12-06T01:20:50.896Z,1011.19
2022-12-06T01:21:50.884Z,1011.19
2022-12-06T01:22:50.877Z,1011.23
2022-12-06T01:23:50.908Z,1011.17
2022-12-06T01:24:50.869Z,1011.21
2022-12-06T01:25:50.847Z,1011.21
2022-12-06T01:26:50.849Z,1011.17
2022-12-06T01:27:50.821Z,1011.16
2022-12-06T01:28:50.828Z,1011.19
2022-12-06T01:29:50.797Z,1011.20
2022-12-06T01:30:50.840Z,1011.17
2022-12-06T01:31:50.780Z,1011.18
2022-12-06T01:32:50.764Z,1011.20
2022-12-06T01:33:50.758Z,1011.24
2022-12-06T01:34:50.789Z,1011.20
2022-12-06T01:35:50.753Z,1011.21
2022-12-06T01:36:50.731Z,1011.20
2022-12-06T01:37:50.721Z,1011.22
2022-12-06T01:38:50.703Z,1011.19
2022-12-06T01:39:50.716Z,1011.19
2022-12-06T01:40:50.689Z,1011.19
2022-12-06T01:41:50.668Z,1011.17
2022-12-06T01:42:50.659Z,1011.17
2022-12-06T01:43:50.673Z,1011.18
2022-12-06T01:44:50.659Z,1011.16
2022-12-06T01:45:50.715Z,1011.19
2022-12-06T01:46:50.628Z,1011.21
2022-12-06T01:47:50.617Z,1011.17
2022-12-06T01:48:50.600Z,1011.21
2022-12-06T01:49:50.593Z,1011.19
2022-12-06T01:50:50.618Z,1011.23
2022-12-06T01:51:50.590Z,1011.19
2022-12-06T01:52:50.560Z,1011.20
2022-12-06T01:53:50.545Z,1011.15
2022-12-06T01:54:50.531Z,1011.17
2022-12-06T01:55:50.519Z,1011.18
2022-12-06T01:56:50.515Z,1011.17
2022-12-06T01:57:50.523Z,1011.13
2022-12-06T01:58:50.526Z,1011.16
2022-12-06T01:59:50.490Z,1011.18
2022-12-06T02:00:50.469Z,1011.11
2022-12-06T02:01:50.558Z,1011.13
2022-12-06T02:02:50.498Z,1011.15
2022-12-06T02:03:50.450Z,1011.13
2022-12-06T02:04:50.464Z,1011.13
2022-12-06T02:05:50.424Z,1011.15
2022-12-06T02:06:51.397Z,1011.16
2022-12-06T02:07:50.468Z,1011.20
2022-12-06T02:08:50.423Z,1011.16
2022-12-06T02:09:50.394Z,1011.17
2022-12-06T02:10:50.379Z,1011.18
2022-12-06T02:11:50.363Z,1011.10
2022-12-06T02:12:50.353Z,1011.11
2022-12-06T02:13:50.361Z,1011.10
2022-12-06T02:14:50.333Z,1011.03
2022-12-06T02:15:50.320Z,1011.04
2022-12-06T02:16:50.392Z,1011.02
2022-12-06T02:17:50.296Z,1011.03
2022-12-06T02:18:50.280Z,1010.96
2022-12-06T02:19:50.282Z,1010.96
2022-12-06T02:20:50.267Z,1010.95
2022-12-06T02:21:50.260Z,1010.90
2022-12-06T02:22:50.254Z,1010.87
2022-12-06T02:23:50.227Z,1010.91
2022-12-06T02:24:50.226Z,1010.89
2022-12-06T02:25:50.225Z,1010.89
2022-12-06T02:26:50.204Z,1010.92
2022-12-06T02:27:50.189Z,1010.88
2022-12-06T02:28:50.174Z,1010.89
2022-12-06T02:29:50.182Z,1010.86
2022-12-06T02:30:50.265Z,1010.86
2022-12-06T02:31:50.163Z,1010.87
2022-12-06T02:32:54.690Z,1010.88
2022-12-06T02:33:51.120Z,1010.86
2022-12-06T02:34:50.106Z,1010.88
2022-12-06T02:35:50.098Z,1010.91
2022-12-06T02:36:50.112Z,1010.84
2022-12-06T02:37:50.098Z,1010.87
2022-12-06T02:38:50.102Z,1010.82
2022-12-06T02:39:50.066Z,1010.86
2022-12-06T02:40:50.048Z,1010.87
2022-12-06T02:41:50.090Z,1010.90
2022-12-06T02:42:50.032Z,1010.80
2022-12-06T02:43:50.023Z,1010.82
2022-12-06T02:44:50.017Z,1010.82
2022-12-06T02:45:50.061Z,1010.80
2022-12-06T02:46:49.983Z,1010.79
2022-12-06T02:47:49.984Z,1010.78
2022-12-06T02:48:49.970Z,1010.79
2022-12-06T02:49:49.952Z,1010.77
2022-12-06T02:50:49.948Z,1010.79
2022-12-06T02:51:49.929Z,1010.77
2022-12-06T02:52:49.937Z,1010.78
2022-12-06T02:53:49.917Z,1010.76
2022-12-06T02:54:49.914Z,1010.78
2022-12-06T02:55:49.896Z,1010.77
2022-12-06T02:56:49.891Z,1010.82
2022-12-06T02:57:49.884Z,1010.82
2022-12-06T02:58:49.864Z,1010.81
2022-12-06T02:59:49.843Z,1010.79
2022-12-06T03:00:49.843Z,1010.73
2022-12-06T03:01:49.930Z,1010.72
2022-12-06T03:02:49.880Z,1010.74
2022-12-06T03:03:49.809Z,1010.75
2022-12-06T03:04:49.838Z,1010.72
2022-12-06T03:05:49.782Z,1010.76
2022-12-06T03:06:49.779Z,1010.74
2022-12-06T03:07:49.808Z,1010.73
2022-12-06T03:08:49.767Z,1010.71
2022-12-06T03:09:49.749Z,1010.72
2022-12-06T03:10:49.782Z,1010.72
2022-12-06T03:11:49.728Z,1010.67
2022-12-06T03:12:49.717Z,1010.69
2022-12-06T03:13:49.742Z,1010.63
2022-12-06T03:14:49.688Z,1010.62
2022-12-06T03:15:49.727Z,1010.59
2022-12-06T03:16:49.668Z,1010.62
2022-12-06T03:17:49.670Z,1010.54
2022-12-06T03:18:49.664Z,1010.55
2022-12-06T03:19:49.655Z,1010.45
2022-12-06T03:20:49.628Z,1010.52
2022-12-06T03:21:49.614Z,1010.47
2022-12-06T03:22:49.609Z,1010.51
2022-12-06T03:23:49.599Z,1010.46
2022-12-06T03:24:49.607Z,1010.43
2022-12-06T03:25:49.594Z,1010.45
2022-12-06T03:26:49.585Z,1010.40
2022-12-06T03:27:49.550Z,1010.44
2022-12-06T03:28:49.542Z,1010.42
2022-12-06T03:29:49.542Z,1010.40
2022-12-06T03:30:49.561Z,1010.38
2022-12-06T03:31:49.524Z,1010.40
2022-12-06T03:32:49.520Z,1010.38
2022-12-06T03:33:49.498Z,1010.38
2022-12-06T03:34:49.491Z,1010.38
2022-12-06T03:35:49.467Z,1010.36
2022-12-06T03:36:49.473Z,1010.43
2022-12-06T03:37:49.446Z,1010.39
2022-12-06T03:38:49.440Z,1010.40
2022-12-06T03:39:49.437Z,1010.39
2022-12-06T03:40:49.427Z,1010.39
2022-12-06T03:41:49.429Z,1010.39
2022-12-06T03:42:49.423Z,1010.38
2022-12-06T03:43:49.386Z,1010.39
2022-12-06T03:44:49.378Z,1010.37
2022-12-06T03:45:49.469Z,1010.37
2022-12-06T03:46:49.415Z,1010.39
2022-12-06T03:47:49.360Z,1010.38
2022-12-06T03:48:49.341Z,1010.33
2022-12-06T03:49:49.328Z,1010.34
2022-12-06T03:50:52.903Z,1010.29
2022-12-06T03:51:50.302Z,1010.34
2022-12-06T03:52:49.303Z,1010.34
2022-12-06T03:53:49.292Z,1010.33
2022-12-06T03:54:49.271Z,1010.36
2022-12-06T03:55:49.255Z,1010.35
2022-12-06T03:56:49.248Z,1010.34
2022-12-06T03:57:49.247Z,1010.26
2022-12-06T03:58:49.271Z,1010.29
2022-12-06T03:59:49.215Z,1010.31
2022-12-06T04:00:49.204Z,1010.35
2022-12-06T04:01:49.323Z,1010.35
2022-12-06T04:02:49.184Z,1010.33
2022-12-06T04:03:49.225Z,1010.28
2022-12-06T04:04:49.172Z,1010.25
2022-12-06T04:05:49.158Z,1010.26
2022-12-06T04:06:49.137Z,1010.22
2022-12-06T04:07:49.177Z,1010.26
2022-12-06T04:08:49.124Z,1010.25
2022-12-06T04:09:49.105Z,1010.24
2022-12-06T04:10:49.115Z,1010.22
2022-12-06T04:11:49.089Z,1010.19
2022-12-06T04:12:49.084Z,1010.23
2022-12-06T04:13:49.089Z,1010.21
2022-12-06T04:14:49.078Z,1010.19
2022-12-06T04:15:49.102Z,1010.17
2022-12-06T04:16:49.037Z,1010.17
2022-12-06T04:17:49.036Z,1010.15
2022-12-06T04:18:49.018Z,1010.17
2022-12-06T04:19:52.045Z,1010.13
2022-12-06T04:20:48.992Z,1010.10
2022-12-06T04:21:48.987Z,1010.14
2022-12-06T04:22:48.978Z,1010.14
2022-12-06T04:23:48.978Z,1010.12
2022-12-06T04:24:48.946Z,1010.12
2022-12-06T04:25:49.001Z,1010.13
2022-12-06T04:26:48.975Z,1010.10
2022-12-06T04:27:48.919Z,1010.07
2022-12-06T04:28:48.924Z,1010.09
2022-12-06T04:29:48.924Z,1010.04
2022-12-06T04:30:48.900Z,1010.04
2022-12-06T04:31:48.963Z,1009.95
2022-12-06T04:32:48.949Z,1009.97
2022-12-06T04:33:48.859Z,1009.90
2022-12-06T04:34:48.857Z,1009.86
2022-12-06T04:35:48.830Z,1009.92
2022-12-06T04:36:48.839Z,1009.87
2022-12-06T04:37:48.813Z,1009.88
2022-12-06T04:38:48.816Z,1009.87
2022-12-06T04:39:48.810Z,1009.85
2022-12-06T04:40:48.786Z,1009.78
2022-12-06T04:41:48.783Z,1009.83
2022-12-06T04:42:48.766Z,1009.82
2022-12-06T04:43:48.750Z,1009.81
2022-12-06T04:44:48.768Z,1009.77
2022-12-06T04:45:48.734Z,1009.74
2022-12-06T04:46:48.779Z,1009.79
2022-12-06T04:47:48.732Z,1009.72
2022-12-06T04:48:48.692Z,1009.76
2022-12-06T04:49:48.693Z,1009.76
2022-12-06T04:50:48.676Z,1009.72
2022-12-06T04:51:48.667Z,1009.72
2022-12-06T04:52:48.664Z,1009.74
2022-12-06T04:53:48.639Z,1009.69
2022-12-06T04:54:48.662Z,1009.71
2022-12-06T04:55:48.629Z,1009.76
2022-12-06T04:56:48.613Z,1009.71
2022-12-06T04:57:48.605Z,1009.71
2022-12-06T04:58:48.607Z,1009.70
2022-12-06T04:59:48.581Z,1009.67
2022-12-06T05:00:48.643Z,1009.68
2022-12-06T05:01:48.568Z,1009.69
2022-12-06T05:02:48.643Z,1009.67
2022-12-06T05:03:48.584Z,1009.69
2022-12-06T05:04:48.521Z,1009.64
2022-12-06T05:05:48.512Z,1009.71
2022-12-06T05:06:48.523Z,1009.66
2022-12-06T05:07:48.550Z,1009.72
2022-12-06T05:08:48.504Z,1009.68
2022-12-06T05:09:48.476Z,1009.68
2022-12-06T05:10:48.513Z,1009.69
2022-12-06T05:11:48.464Z,1009.69
2022-12-06T05:12:48.437Z,1009.71
2022-12-06T05:13:48.427Z,1009.65
2022-12-06T05:14:48.421Z,1009.70
2022-12-06T05:15:48.437Z,1009.70
2022-12-06T05:16:48.544Z,1009.73
2022-12-06T05:17:48.398Z,1009.73
2022-12-06T05:18:48.397Z,1009.75
2022-12-06T05:19:48.371Z,1009.78
2022-12-06T05:20:48.384Z,1009.77
2022-12-06T05:21:48.363Z,1009.73
2022-12-06T05:22:48.339Z,1009.79
2022-12-06T05:23:48.324Z,1009.75
2022-12-06T05:24:48.344Z,1009.74
2022-12-06T05:25:48.462Z,1009.75
2022-12-06T05:26:48.290Z,1009.70
2022-12-06T05:27:48.293Z,1009.74
2022-12-06T05:28:48.270Z,1009.74
2022-12-06T05:29:48.263Z,1009.72
2022-12-06T05:30:48.259Z,1009.71
2022-12-06T05:31:48.413Z,1009.65
2022-12-06T05:32:52.544Z,1009.66
2022-12-06T05:33:49.225Z,1009.69
2022-12-06T05:34:48.230Z,1009.64
2022-12-06T05:35:48.196Z,1009.68
2022-12-06T05:36:48.190Z,1009.66
2022-12-06T05:37:48.174Z,1009.65
2022-12-06T05:38:51.311Z,1009.64
2022-12-06T05:39:48.168Z,1009.67
2022-12-06T05:40:48.148Z,1009.65
2022-12-06T05:41:48.144Z,1009.62
2022-12-06T05:42:48.120Z,1009.66
2022-12-06T05:43:48.129Z,1009.69
2022-12-06T05:44:48.112Z,1009.67
2022-12-06T05:45:48.129Z,1009.65
2022-12-06T05:46:48.079Z,1009.68
2022-12-06T05:47:48.101Z,1009.71
2022-12-06T05:48:48.076Z,1009.66
2022-12-06T05:49:48.075Z,1009.67
2022-12-06T05:50:48.071Z,1009.68
2022-12-06T05:51:48.041Z,1009.67
2022-12-06T05:52:48.017Z,1009.70
2022-12-06T05:53:48.002Z,1009.66
2022-12-06T05:54:48.014Z,1009.66
2022-12-06T05:55:48.001Z,1009.63
2022-12-06T05:56:47.984Z,1009.64
2022-12-06T05:57:47.965Z,1009.64
2022-12-06T05:58:47.961Z,1009.63
2022-12-06T05:59:57.200Z,1009.64
2022-12-06T06:00:47.936Z,1009.65
2022-12-06T06:01:47.983Z,1009.67
2022-12-06T06:02:48.059Z,1009.65
2022-12-06T06:03:48.183Z,1009.70
2022-12-06T06:04:47.913Z,1009.69
2022-12-06T06:05:47.884Z,1009.71
2022-12-06T06:06:47.886Z,1009.66
2022-12-06T06:07:47.904Z,1009.64
2022-12-06T06:08:47.842Z,1009.68
2022-12-06T06:09:47.866Z,1009.72
2022-12-06T06:10:47.826Z,1009.71
2022-12-06T06:11:47.811Z,1009.74
2022-12-06T06:12:47.804Z,1009.72
2022-12-06T06:13:47.796Z,1009.71
2022-12-06T06:14:47.788Z,1009.64
2022-12-06T06:15:47.781Z,1009.67
2022-12-06T06:16:47.811Z,1009.69
2022-12-06T06:17:47.750Z,1009.67
2022-12-06T06:18:47.747Z,1009.62
2022-12-06T06:19:51.426Z,1009.63
2022-12-06T06:20:47.720Z,1009.64
2022-12-06T06:21:47.727Z,1009.68
2022-12-06T06:22:47.722Z,1009.64
2022-12-06T06:23:47.690Z,1009.67
2022-12-06T06:24:47.693Z,1009.64
2022-12-06T06:25:47.684Z,1009.67
2022-12-06T06:26:48.002Z,1009.66
2022-12-06T06:27:47.649Z,1009.63
2022-12-06T06:28:47.634Z,1009.65
2022-12-06T06:29:47.631Z,1009.69
2022-12-06T06:30:47.624Z,1009.64
2022-12-06T06:31:47.761Z,1009.64
2022-12-06T06:32:47.600Z,1009.69
2022-12-06T06:33:47.581Z,1009.69
2022-12-06T06:34:47.571Z,1009.69
2022-12-06T06:35:47.567Z,1009.71
2022-12-06T06:36:47.549Z,1009.68
2022-12-06T06:37:47.568Z,1009.71
2022-12-06T06:38:47.548Z,1009.70
2022-12-06T06:39:47.524Z,1009.72
2022-12-06T06:40:47.510Z,1009.74
2022-12-06T06:41:47.500Z,1009.73
2022-12-06T06:42:47.500Z,1009.76
2022-12-06T06:43:47.491Z,1009.74
2022-12-06T06:44:47.468Z,1009.73
2022-12-06T06:45:47.524Z,1009.74
2022-12-06T06:46:47.450Z,1009.75
2022-12-06T06:47:47.451Z,1009.79
2022-12-06T06:48:47.427Z,1009.76
2022-12-06T06:49:47.413Z,1009.81
2022-12-06T06:50:48.163Z,1009.77
2022-12-06T06:51:47.390Z,1009.75
2022-12-06T06:52:47.402Z,1009.76
2022-12-06T06:53:47.375Z,1009.74
2022-12-06T06:54:47.377Z,1009.71
2022-12-06T06:55:47.372Z,1009.75
2022-12-06T06:56:47.347Z,1009.76
2022-12-06T06:57:47.359Z,1009.73
2022-12-06T06:58:47.324Z,1009.73
2022-12-06T06:59:47.313Z,1009.72
2022-12-06T07:00:47.299Z,1009.70
2022-12-06T07:01:47.423Z,1009.72
2022-12-06T07:02:47.364Z,1009.71
2022-12-06T07:03:47.316Z,1009.70
2022-12-06T07:04:47.270Z,1009.69
2022-12-06T07:05:47.252Z,1009.71
2022-12-06T07:06:47.242Z,1009.72
2022-12-06T07:07:47.316Z,1009.73
2022-12-06T07:08:47.238Z,1009.72
2022-12-06T07:09:47.245Z,1009.76
2022-12-06T07:10:47.208Z,1009.72
2022-12-06T07:11:47.188Z,1009.70
2022-12-06T07:12:47.178Z,1009.66
2022-12-06T07:13:52.502Z,1009.68
2022-12-06T07:14:48.417Z,1009.69
2022-12-06T07:15:47.147Z,1009.66
2022-12-06T07:16:47.168Z,1009.71
2022-12-06T07:17:47.116Z,1009.70
2022-12-06T07:18:47.113Z,1009.75
2022-12-06T07:19:47.095Z,1009.70
2022-12-06T07:20:47.104Z,1009.73
2022-12-06T07:21:47.079Z,1009.73
2022-12-06T07:22:47.073Z,1009.77
2022-12-06T07:23:47.052Z,1009.76
2022-12-06T07:24:52.207Z,1009.79
2022-12-06T07:25:48.063Z,1009.76
2022-12-06T07:26:47.064Z,1009.73
2022-12-06T07:27:47.016Z,1009.80
2022-12-06T07:28:47.009Z,1009.76
2022-12-06T07:29:46.995Z,1009.77
2022-12-06T07:30:47.012Z,1009.75
2022-12-06T07:31:46.989Z,1009.80
2022-12-06T07:32:46.959Z,1009.80
2022-12-06T07:33:46.955Z,1009.78
2022-12-06T07:34:46.944Z,1009.81
2022-12-06T07:36:11.304Z,1009.81
2022-12-06T07:36:47.934Z,1009.81
2022-12-06T07:37:46.902Z,1009.83
2022-12-06T07:38:46.903Z,1009.79
2022-12-06T07:39:46.885Z,1009.83
2022-12-06T07:41:47.868Z,1009.82
2022-12-06T07:42:46.888Z,1009.78
2022-12-06T07:43:46.854Z,1009.79
2022-12-06T07:44:46.841Z,1009.76
2022-12-06T07:45:46.916Z,1009.77
2022-12-06T07:46:46.815Z,1009.82
2022-12-06T07:47:46.825Z,1009.81
2022-12-06T07:48:46.798Z,1009.82
2022-12-06T07:49:46.787Z,1009.76
2022-12-06T07:50:46.770Z,1009.76
2022-12-06T07:51:46.767Z,1009.81
2022-12-06T07:52:46.781Z,1009.80
2022-12-06T07:53:46.733Z,1009.85
2022-12-06T07:54:46.763Z,1009.84
2022-12-06T07:55:46.724Z,1009.84
2022-12-06T07:56:46.704Z,1009.87
2022-12-06T07:57:46.705Z,1009.81
2022-12-06T07:58:46.716Z,1009.81
2022-12-06T07:59:46.684Z,1009.81
2022-12-06T08:00:46.668Z,1009.83
2022-12-06T08:01:46.750Z,1009.82
2022-12-06T08:02:46.650Z,1009.80
2022-12-06T08:03:46.646Z,1009.82
2022-12-06T08:04:46.680Z,1009.83
2022-12-06T08:05:46.637Z,1009.82
2022-12-06T08:06:46.597Z,1009.83
2022-12-06T08:07:46.621Z,1009.80
2022-12-06T08:08:46.589Z,1009.80
2022-12-06T08:09:46.596Z,1009.81
2022-12-06T08:10:46.602Z,1009.79
2022-12-06T08:11:46.545Z,1009.80
2022-12-06T08:12:46.544Z,1009.79
2022-12-06T08:13:46.534Z,1009.77
2022-12-06T08:14:46.533Z,1009.75
2022-12-06T08:15:46.625Z,1009.74
2022-12-06T08:16:46.493Z,1009.75
2022-12-06T08:17:46.517Z,1009.75
2022-12-06T08:18:46.494Z,1009.83
2022-12-06T08:19:46.468Z,1009.75
2022-12-06T08:20:46.453Z,1009.79
2022-12-06T08:21:46.448Z,1009.76
2022-12-06T08:22:46.431Z,1009.81
2022-12-06T08:23:46.451Z,1009.82
2022-12-06T08:24:46.409Z,1009.80
2022-12-06T08:25:46.415Z,1009.80
2022-12-06T08:26:46.398Z,1009.81
2022-12-06T08:27:46.384Z,1009.81
2022-12-06T08:28:46.369Z,1009.80
2022-12-06T08:29:46.391Z,1009.81
2022-12-06T08:30:46.433Z,1009.82
2022-12-06T08:31:46.436Z,1009.81
2022-12-06T08:32:46.329Z,1009.83
2022-12-06T08:33:46.321Z,1009.84
2022-12-06T08:34:46.327Z,1009.82
2022-12-06T08:35:46.302Z,1009.83
2022-12-06T08:36:46.288Z,1009.75
2022-12-06T08:37:46.272Z,1009.84
2022-12-06T08:38:46.261Z,1009.78
2022-12-06T08:39:46.277Z,1009.82
2022-12-06T08:40:46.238Z,1009.82
2022-12-06T08:41:46.242Z,1009.83
2022-12-06T08:42:46.221Z,1009.81
2022-12-06T08:43:46.245Z,1009.83
2022-12-06T08:44:46.205Z,1009.80
2022-12-06T08:45:46.224Z,1009.77
2022-12-06T08:46:46.261Z,1009.81
2022-12-06T08:47:46.172Z,1009.78
2022-12-06T08:48:46.152Z,1009.78
2022-12-06T08:49:46.146Z,1009.80
2022-12-06T08:50:46.180Z,1009.82
2022-12-06T08:51:46.122Z,1009.77
2022-12-06T08:52:46.113Z,1009.77
2022-12-06T08:53:46.115Z,1009.79
2022-12-06T08:54:46.093Z,1009.79
2022-12-06T08:55:46.092Z,1009.77
2022-12-06T08:56:46.127Z,1009.80
2022-12-06T08:57:46.063Z,1009.79
2022-12-06T08:58:46.057Z,1009.77
2022-12-06T08:59:46.046Z,1009.74
2022-12-06T09:00:46.036Z,1009.80
2022-12-06T09:01:46.066Z,1009.80
2022-12-06T09:02:46.074Z,1009.82
2022-12-06T09:03:45.997Z,1009.80
2022-12-06T09:04:46.089Z,1009.82
2022-12-06T09:05:45.973Z,1009.76
2022-12-06T09:06:46.001Z,1009.81
2022-12-06T09:07:46.058Z,1009.79
2022-12-06T09:08:45.946Z,1009.74
2022-12-06T09:09:45.932Z,1009.79
2022-12-06T09:10:45.931Z,1009.80
2022-12-06T09:11:45.938Z,1009.83
2022-12-06T09:12:45.926Z,1009.78
2022-12-06T09:13:45.886Z,1009.78
2022-12-06T09:14:45.889Z,1009.71
2022-12-06T09:15:45.882Z,1009.78
2022-12-06T09:16:45.893Z,1009.74
2022-12-06T09:17:45.859Z,1009.73
2022-12-06T09:18:45.855Z,1009.69
2022-12-06T09:19:45.836Z,1009.70
2022-12-06T09:20:45.821Z,1009.70
2022-12-06T09:21:45.803Z,1009.67
2022-12-06T09:22:45.849Z,1009.69
2022-12-06T09:23:45.789Z,1009.68
2022-12-06T09:24:45.779Z,1009.68
2022-12-06T09:25:45.766Z,1009.71
2022-12-06T09:26:45.766Z,1009.67
2022-12-06T09:27:45.772Z,1009.70
2022-12-06T09:28:45.733Z,1009.69
2022-12-06T09:29:45.718Z,1009.67
2022-12-06T09:30:45.771Z,1009.66
2022-12-06T09:31:45.764Z,1009.66
2022-12-06T09:32:45.726Z,1009.71
2022-12-06T09:33:45.709Z,1009.68
2022-12-06T09:34:45.687Z,1009.70
2022-12-06T09:35:45.651Z,1009.65
2022-12-06T09:36:45.657Z,1009.67
2022-12-06T09:37:45.636Z,1009.71
2022-12-06T09:38:45.628Z,1009.64
2022-12-06T09:39:45.642Z,1009.67
2022-12-06T09:40:45.649Z,1009.63
2022-12-06T09:41:45.584Z,1009.64
2022-12-06T09:42:45.586Z,1009.65
2022-12-06T09:43:45.596Z,1009.66
2022-12-06T09:44:45.551Z,1009.60
2022-12-06T09:45:45.578Z,1009.61
2022-12-06T09:46:45.586Z,1009.61
2022-12-06T09:47:45.545Z,1009.56
2022-12-06T09:48:49.036Z,1009.62
2022-12-06T09:49:45.526Z,1009.59
2022-12-06T09:50:45.509Z,1009.53
2022-12-06T09:51:45.486Z,1009.52
2022-12-06T09:52:45.467Z,1009.53
2022-12-06T09:53:45.461Z,1009.55
2022-12-06T09:54:51.091Z,1009.51
2022-12-06T09:55:45.433Z,1009.52
2022-12-06T09:56:45.425Z,1009.52
2022-12-06T09:57:45.426Z,1009.51
2022-12-06T09:58:45.425Z,1009.53
2022-12-06T09:59:45.420Z,1009.48
2022-12-06T10:00:45.382Z,1009.49
2022-12-06T10:01:45.476Z,1009.47
2022-12-06T10:02:45.430Z,1009.46
2022-12-06T10:03:45.345Z,1009.46
2022-12-06T10:04:45.375Z,1009.44
2022-12-06T10:05:50.535Z,1009.45
2022-12-06T10:06:46.353Z,1009.44
2022-12-06T10:07:45.498Z,1009.47
2022-12-06T10:08:45.396Z,1009.45
2022-12-06T10:09:45.289Z,1009.42
2022-12-06T10:10:45.295Z,1009.39
2022-12-06T10:11:45.290Z,1009.42
2022-12-06T10:12:45.258Z,1009.40
2022-12-06T10:13:45.241Z,1009.36
2022-12-06T10:14:45.236Z,1009.33
2022-12-06T10:15:45.292Z,1009.36
2022-12-06T10:16:45.320Z,1009.33
2022-12-06T10:17:49.162Z,1009.37
2022-12-06T10:18:46.183Z,1009.31
2022-12-06T10:19:45.177Z,1009.33
2022-12-06T10:20:45.175Z,1009.31
2022-12-06T10:21:45.178Z,1009.30
2022-12-06T10:22:45.193Z,1009.32
2022-12-06T10:23:45.160Z,1009.38
2022-12-06T10:24:45.128Z,1009.35
2022-12-06T10:25:45.105Z,1009.32
2022-12-06T10:26:45.106Z,1009.29
2022-12-06T10:27:45.110Z,1009.30
2022-12-06T10:28:45.102Z,1009.26
2022-12-06T10:29:45.071Z,1009.28
2022-12-06T10:30:45.056Z,1009.25
2022-12-06T10:31:45.121Z,1009.25
2022-12-06T10:32:45.030Z,1009.23
2022-12-06T10:33:45.051Z,1009.27
2022-12-06T10:34:49.137Z,1009.24
2022-12-06T10:35:45.005Z,1009.22
2022-12-06T10:36:44.993Z,1009.20
2022-12-06T10:37:44.987Z,1009.19
2022-12-06T10:38:45.020Z,1009.24
2022-12-06T10:39:50.308Z,1009.19
2022-12-06T10:40:46.017Z,1009.17
2022-12-06T10:41:44.942Z,1009.20
2022-12-06T10:42:44.924Z,1009.22
2022-12-06T10:43:44.920Z,1009.17
2022-12-06T10:44:44.926Z,1009.18
2022-12-06T10:45:44.897Z,1009.19
2022-12-06T10:46:44.926Z,1009.19
2022-12-06T10:47:44.880Z,1009.18
2022-12-06T10:48:44.866Z,1009.21
2022-12-06T10:49:44.877Z,1009.13
2022-12-06T10:50:44.833Z,1009.16
2022-12-06T10:51:44.831Z,1009.11
2022-12-06T10:52:44.816Z,1009.11
2022-12-06T10:53:44.815Z,1009.06
2022-12-06T10:54:44.842Z,1009.09
2022-12-06T10:55:44.820Z,1009.08
2022-12-06T10:56:44.772Z,1009.04
2022-12-06T10:57:44.760Z,1009.07
2022-12-06T10:58:44.755Z,1009.12
2022-12-06T10:59:44.737Z,1009.11
2022-12-06T11:00:44.800Z,1009.08
2022-12-06T11:01:44.840Z,1009.08
2022-12-06T11:02:44.714Z,1009.07
2022-12-06T11:03:44.701Z,1009.07
2022-12-06T11:04:44.685Z,1009.08
2022-12-06T11:05:44.680Z,1009.07
2022-12-06T11:06:47.618Z,1009.07
2022-12-06T11:07:44.751Z,1009.06
2022-12-06T11:08:44.715Z,1009.06
2022-12-06T11:09:44.627Z,1009.06
2022-12-06T11:10:44.655Z,1009.01
2022-12-06T11:11:44.608Z,1009.01
2022-12-06T11:12:44.611Z,1008.94
2022-12-06T11:13:44.583Z,1009.00
2022-12-06T11:14:44.596Z,1008.96
2022-12-06T11:15:44.563Z,1008.94
2022-12-06T11:16:44.663Z,1008.93
2022-12-06T11:17:44.575Z,1008.92
2022-12-06T11:18:44.541Z,1008.95
2022-12-06T11:19:44.527Z,1008.94
2022-12-06T11:20:44.509Z,1008.94
2022-12-06T11:21:44.503Z,1008.98
2022-12-06T11:22:44.483Z,1008.93
2022-12-06T11:23:44.502Z,1008.99
2022-12-06T11:24:47.732Z,1008.97
2022-12-06T11:25:44.461Z,1008.98
2022-12-06T11:26:44.497Z,1008.94
2022-12-06T11:27:44.440Z,1008.93
2022-12-06T11:28:44.465Z,1008.94
2022-12-06T11:29:44.419Z,1008.93
2022-12-06T11:30:44.408Z,1008.95
2022-12-06T11:31:44.454Z,1008.90
2022-12-06T11:32:44.388Z,1008.92
2022-12-06T11:33:44.397Z,1008.92
2022-12-06T11:34:44.375Z,1008.91
2022-12-06T11:35:44.346Z,1008.89
2022-12-06T11:36:44.341Z,1008.89
2022-12-06T11:37:44.714Z,1008.86
2022-12-06T11:38:44.343Z,1008.87
2022-12-06T11:39:44.312Z,1008.89
2022-12-06T11:40:44.301Z,1008.86
2022-12-06T11:41:44.288Z,1008.84
2022-12-06T11:42:44.297Z,1008.79
2022-12-06T11:43:44.277Z,1008.85
2022-12-06T11:44:49.451Z,1008.84
2022-12-06T11:45:45.250Z,1008.82
2022-12-06T11:46:44.276Z,1008.79
2022-12-06T11:47:44.220Z,1008.75
2022-12-06T11:48:44.230Z,1008.74
2022-12-06T11:49:44.211Z,1008.74
2022-12-06T11:50:44.221Z,1008.76
2022-12-06T11:51:44.189Z,1008.75
2022-12-06T11:52:44.200Z,1008.76
2022-12-06T11:53:44.160Z,1008.69
2022-12-06T11:54:44.152Z,1008.68
2022-12-06T11:55:44.141Z,1008.65
2022-12-06T11:56:44.126Z,1008.63
2022-12-06T11:57:44.117Z,1008.63
2022-12-06T11:58:44.154Z,1008.68
2022-12-06T11:59:44.101Z,1008.61
2022-12-06T12:00:44.086Z,1008.65
2022-12-06T12:01:44.241Z,1008.61
2022-12-06T12:02:44.234Z,1008.64
2022-12-06T12:03:44.222Z,1008.61
2022-12-06T12:04:44.047Z,1008.63
2022-12-06T12:05:53.566Z,1008.61
2022-12-06T12:06:44.049Z,1008.58